createdAt,value
2022-09-02T00:07:14.079Z,15.02
2022-09-02T00:17:19.056Z,15.33
2022-09-02T00:27:20.719Z,15.34
2022-09-02T00:37:23.761Z,15.31
2022-09-02T00:47:26.025Z,15.29
2022-09-02T00:57:32.201Z,15.15
2022-09-02T01:07:38.644Z,15.17
2022-09-02T01:17:46.218Z,15.08
2022-09-02T01:27:48.978Z,14.97
2022-09-02T01:37:56.142Z,14.96
2022-09-02T01:48:00.840Z,14.88
2022-09-02T01:58:03.733Z,14.68
2022-09-02T02:08:06.101Z,14.81
2022-09-02T02:18:08.682Z,14.85
2022-09-02T02:28:10.432Z,14.94
2022-09-02T02:38:14.411Z,14.82
2022-09-02T02:48:16.445Z,14.82
2022-09-02T02:58:18.351Z,14.98
2022-09-02T03:08:21.392Z,14.98
2022-09-02T03:18:24.199Z,14.96
2022-09-02T03:28:26.095Z,14.80
2022-09-02T03:38:28.002Z,14.78
2022-09-02T03:48:30.795Z,14.83
2022-09-02T03:58:35.159Z,14.55
2022-09-02T04:08:37.235Z,14.39
2022-09-02T04:18:46.308Z,14.49
2022-09-02T04:28:49.672Z,14.66
2022-09-02T04:38:53.003Z,14.83
2022-09-02T04:49:01.214Z,14.99
2022-09-02T04:59:02.980Z,15.15
2022-09-02T05:09:05.021Z,15.22
2022-09-02T05:19:10.301Z,15.48
2022-09-02T05:29:13.879Z,15.88
2022-09-02T05:39:15.699Z,16.25
2022-09-02T05:49:18.017Z,16.51
2022-09-02T05:59:21.555Z,16.76
2022-09-02T06:09:24.441Z,16.97
2022-09-02T06:19:36.406Z,17.29
2022-09-02T06:29:39.693Z,17.69
2022-09-02T06:39:44.886Z,17.94
2022-09-02T06:49:46.602Z,18.25
2022-09-02T06:59:48.366Z,18.38
2022-09-02T07:09:51.448Z,18.57
2022-09-02T07:19:56.037Z,19.02
2022-09-02T07:29:57.925Z,19.48
2022-09-02T07:40:00.064Z,19.71
2022-09-02T07:50:20.109Z,19.66
2022-09-02T08:00:23.250Z,20.01
2022-09-02T08:10:27.565Z,20.50
2022-09-02T08:20:33.567Z,20.86
2022-09-02T08:30:35.444Z,21.14
2022-09-02T08:40:41.907Z,21.00
2022-09-02T08:50:49.226Z,21.54
2022-09-02T09:01:04.495Z,22.26
2022-09-02T09:11:31.552Z,22.46
2022-09-02T09:21:33.468Z,22.53
2022-09-02T09:31:36.012Z,22.57
2022-09-02T09:41:37.968Z,22.76
2022-09-02T09:51:55.151Z,23.60
2022-09-02T10:01:57.122Z,25.08
2022-09-02T10:12:07.524Z,26.38
2022-09-02T10:23:17.272Z,26.57
2022-09-02T10:33:59.569Z,28.41
2022-09-02T10:44:20.193Z,29.64
2022-09-02T10:54:51.280Z,28.25
2022-09-02T11:05:01.849Z,27.34
2022-09-02T11:15:17.590Z,26.75
2022-09-02T11:25:46.269Z,27.78
2022-09-02T11:35:48.562Z,29.05
2022-09-02T11:46:16.754Z,32.08
2022-09-02T11:56:29.169Z,36.99
2022-09-02T12:06:32.007Z,34.26
2022-09-02T12:16:33.732Z,35.31
2022-09-02T12:26:38.425Z,34.08
2022-09-02T12:36:53.836Z,32.88
2022-09-02T12:47:22.859Z,35.76
2022-09-02T12:57:39.032Z,36.38
2022-09-02T13:07:59.713Z,37.26
2022-09-02T13:18:23.439Z,37.33
2022-09-02T13:28:49.808Z,30.06
2022-09-02T13:38:51.663Z,31.76
2022-09-02T13:48:59.782Z,27.81
2022-09-02T13:59:02.789Z,33.61
2022-09-02T14:09:12.009Z,29.29
2022-09-02T14:19:16.675Z,28.14
2022-09-02T14:29:23.368Z,39.93
2022-09-02T14:39:25.094Z,35.81
2022-09-02T14:49:34.259Z,27.99
2022-09-02T14:59:35.881Z,38.00
2022-09-02T15:09:37.777Z,27.98
2022-09-02T15:19:47.702Z,24.74
2022-09-02T15:29:52.665Z,23.35
2022-09-02T15:39:54.370Z,22.12
2022-09-02T15:49:59.899Z,21.36
2022-09-02T16:00:01.970Z,21.69
2022-09-02T16:10:11.064Z,23.61
2022-09-02T16:20:16.063Z,21.53
2022-09-02T16:30:30.141Z,20.70
2022-09-02T16:40:32.508Z,20.16
2022-09-02T16:50:36.092Z,19.85
2022-09-02T17:00:41.389Z,19.55
2022-09-02T17:10:44.111Z,19.40
2022-09-02T17:20:46.121Z,19.29
2022-09-02T17:31:02.668Z,18.91
2022-09-02T17:41:23.666Z,18.61
2022-09-02T17:51:25.621Z,18.39
2022-09-02T18:01:32.848Z,18.21
2022-09-02T18:11:39.683Z,18.01
2022-09-02T18:21:50.136Z,17.84
2022-09-02T18:31:54.872Z,17.71
2022-09-02T18:42:29.441Z,17.74
2022-09-02T18:52:32.443Z,17.50
2022-09-02T19:02:45.366Z,17.14
2022-09-02T19:12:48.466Z,17.19
2022-09-02T19:22:54.742Z,17.33
2022-09-02T19:33:00.549Z,17.03
2022-09-02T19:43:05.355Z,16.93
2022-09-02T19:53:08.754Z,16.66
2022-09-02T20:03:11.788Z,16.46
2022-09-02T20:13:16.996Z,16.21
2022-09-02T20:23:22.934Z,16.07
2022-09-02T20:33:39.341Z,15.89
2022-09-02T20:43:53.596Z,15.91
2022-09-02T20:54:11.377Z,15.78
2022-09-02T21:04:25.678Z,15.56
2022-09-02T21:14:41.821Z,15.47
2022-09-02T21:24:55.291Z,15.41
2022-09-02T21:35:11.947Z,15.25
2022-09-02T21:45:23.602Z,15.08
2022-09-02T21:55:29.860Z,14.98
2022-09-02T22:05:53.432Z,14.86
2022-09-02T22:16:19.449Z,14.84
2022-09-02T22:26:40.102Z,14.58
2022-09-02T22:36:57.626Z,14.40
2022-09-02T22:47:24.948Z,14.27
2022-09-02T22:57:57.077Z,14.10
2022-09-02T23:07:58.819Z,13.94
2022-09-02T23:18:29.581Z,13.83
2022-09-02T23:28:40.108Z,13.69
2022-09-02T23:39:06.860Z,13.51
2022-09-02T23:49:25.548Z,13.41
2022-09-02T23:59:48.102Z,13.30
